Etusivu
METAR-TAF:

METAR-TAF

Lentoasemat :

Monastir, Tunisia

Leveyspiiri: 35-46N, Pituuspiiri: 010-45E, korkeus merenpinnasta: 2 m

Tämänhetkinen sää

Tämä raportti tehtiin 27 minuuttia sitten, kello 10.00 UTC
Tuuli 13 kn pohjoisesta
Lämpötila 18°C
Kosteus 77%
Ilmanpaine 1015 hPa
Näkyvyys: 8000 m

METAR: DTMB 011000Z 01013KT 8000 NSC 18/14 Q1015

Aika: 11:27 (10:27 UTC)

Sääennuste

Tämä raportti tehtiin 5 tuntia ja 27 minuuttia sitten, kello 05.00 UTC
Ennuste voimassa 01. päivästä klo 06 UTC - 02. päivään klo 06 UTC
Tuuli 5 kn etelästä
Näkyvyys: 8000 m
Tulossa
01. päivästä klo 08 UTC - 01. päivään klo 10 UTC
Tuuli 12 kn pohjoisesta/koillisesta
Tulossa
01. päivästä klo 20 UTC - 01. päivään klo 22 UTC
Tuuli 3 kn eri suunnista
Tulossa
02. päivästä klo 02 UTC - 02. päivään klo 04 UTC
Tuuli 11 kn pohjoisesta/koillisesta

TAF: DTMB 010500Z 0106/0206 18005KT 8000 NSC BECMG 0108/0110 03012KT BECMG 0120/0122 VRB03KT BECMG 0202/0204 03011KT

Säähavainnot ja -ennusteet yli 4000 lentoasemalta (METAR- ja TAF-raportit).

Käytössä olevat sääasemat on merkitty karttaan keltaisilla ja punaisilla pisteillä.

Aseta hiiri pisteen päälle nähdäksesi sääaseman nimen.

Klikkaa sitten nähdäksesi säähavainnot ja -ennusteet.

Kartan vaihtaminen: klikkaa mustalla rastilla varustettuja vihreitä pisteitä, niin voit zoomata sisään; viivalla varustettua vihreää pistettä, niin voit zoomata ulos tai vihreitä nuolia, niin pääset viereisille kartoille.


METAR-TAF: